createdAt,value
2022-07-31T00:00:30.613Z,17.60
2022-07-31T00:02:59.406Z,17.60
2022-07-31T00:05:28.197Z,17.50
2022-07-31T00:07:56.717Z,17.50
2022-07-31T00:10:26.843Z,17.40
2022-07-31T00:12:55.644Z,17.40
2022-07-31T00:15:24.702Z,17.40
2022-07-31T00:17:53.193Z,17.30
2022-07-31T00:20:21.656Z,17.30
2022-07-31T00:22:50.658Z,17.30
2022-07-31T00:25:20.185Z,17.30
2022-07-31T00:27:52.923Z,17.30
2022-07-31T00:30:21.393Z,17.30
2022-07-31T00:32:52.009Z,17.30
2022-07-31T00:35:20.990Z,17.30
2022-07-31T00:37:49.451Z,17.30
2022-07-31T00:40:18.844Z,17.20
2022-07-31T00:42:47.390Z,17.20
2022-07-31T00:45:17.071Z,17.10
2022-07-31T00:47:55.898Z,17.00
2022-07-31T00:50:24.505Z,17.00
2022-07-31T00:52:52.954Z,16.90
2022-07-31T00:55:22.741Z,16.80
2022-07-31T00:57:51.193Z,16.70
2022-07-31T01:00:21.137Z,16.70
2022-07-31T01:02:49.565Z,16.60
2022-07-31T01:05:19.085Z,16.60
2022-07-31T01:07:48.987Z,16.50
2022-07-31T01:10:25.864Z,16.50
2022-07-31T01:12:58.165Z,16.40
2022-07-31T01:15:29.772Z,16.40
2022-07-31T01:17:59.665Z,16.30
2022-07-31T01:20:29.671Z,16.30
2022-07-31T01:23:19.505Z,16.20
2022-07-31T01:26:00.114Z,16.20
2022-07-31T01:28:53.856Z,16.10
2022-07-31T01:31:28.248Z,16.10
2022-07-31T01:34:03.961Z,16.10
2022-07-31T01:36:35.902Z,16.00
2022-07-31T01:39:05.109Z,15.90
2022-07-31T01:41:37.379Z,15.90
2022-07-31T01:44:13.881Z,15.80
2022-07-31T01:46:44.828Z,15.80
2022-07-31T01:49:15.301Z,15.70
2022-07-31T01:51:45.792Z,15.70
2022-07-31T01:54:15.627Z,15.70
2022-07-31T01:56:47.774Z,15.60
2022-07-31T01:59:20.369Z,15.60
2022-07-31T02:01:53.005Z,15.50
2022-07-31T02:04:22.831Z,15.50
2022-07-31T02:06:52.569Z,15.40
2022-07-31T02:09:22.092Z,15.40
2022-07-31T02:11:54.393Z,15.30
2022-07-31T02:14:25.990Z,15.30
2022-07-31T02:16:55.348Z,15.20
2022-07-31T02:19:25.413Z,15.20
2022-07-31T02:21:54.520Z,15.20
2022-07-31T02:24:24.664Z,15.20
2022-07-31T02:26:54.025Z,15.20
2022-07-31T02:29:25.083Z,15.10
2022-07-31T02:32:02.511Z,15.10
2022-07-31T02:34:33.578Z,15.10
2022-07-31T02:37:03.246Z,15.00
2022-07-31T02:39:33.373Z,15.00
2022-07-31T02:42:02.945Z,15.00
2022-07-31T02:44:34.941Z,15.00
2022-07-31T02:47:05.461Z,15.00
2022-07-31T02:49:34.890Z,15.00
2022-07-31T02:52:05.262Z,15.00
2022-07-31T02:55:06.683Z,14.90
2022-07-31T02:57:36.312Z,14.90
2022-07-31T03:00:23.045Z,14.90
2022-07-31T03:02:52.167Z,14.90
2022-07-31T03:05:20.588Z,14.80
2022-07-31T03:07:49.059Z,14.80
2022-07-31T03:10:17.572Z,14.70
2022-07-31T03:12:49.191Z,14.70
2022-07-31T03:15:24.547Z,14.70
2022-07-31T03:17:54.676Z,14.70
2022-07-31T03:20:23.674Z,14.70
2022-07-31T03:22:52.804Z,14.70
2022-07-31T03:25:22.229Z,14.60
2022-07-31T03:27:55.788Z,14.60
2022-07-31T03:30:27.622Z,14.60
2022-07-31T03:32:57.454Z,14.60
2022-07-31T03:35:27.195Z,14.60
2022-07-31T03:37:55.628Z,14.50
2022-07-31T03:40:24.217Z,14.50
2022-07-31T03:42:53.634Z,14.50
2022-07-31T03:45:22.943Z,14.50
2022-07-31T03:47:53.045Z,14.50
2022-07-31T03:50:22.573Z,14.50
2022-07-31T03:52:51.956Z,14.50
2022-07-31T03:55:20.529Z,14.50
2022-07-31T03:57:49.736Z,14.50
2022-07-31T04:00:20.524Z,14.60
2022-07-31T04:02:49.217Z,14.60
2022-07-31T04:05:19.183Z,14.70
2022-07-31T04:07:47.493Z,14.70
2022-07-31T04:10:16.046Z,14.80
2022-07-31T04:12:44.405Z,14.80
2022-07-31T04:15:13.043Z,14.80
2022-07-31T04:17:44.219Z,14.80
2022-07-31T04:20:12.915Z,14.90
2022-07-31T04:22:42.948Z,14.90
2022-07-31T04:25:11.525Z,15.00
2022-07-31T04:27:48.806Z,15.00
2022-07-31T04:30:17.924Z,15.10
2022-07-31T04:32:46.447Z,15.20
2022-07-31T04:35:14.964Z,15.30
2022-07-31T04:37:48.473Z,15.30
2022-07-31T04:40:17.345Z,15.40
2022-07-31T04:42:45.799Z,15.50
2022-07-31T04:45:14.256Z,15.60
2022-07-31T04:47:45.630Z,15.70
2022-07-31T04:50:14.115Z,15.70
2022-07-31T04:52:42.485Z,15.80
2022-07-31T04:55:13.112Z,15.90
2022-07-31T04:57:41.467Z,15.90
2022-07-31T05:00:11.208Z,16.00
2022-07-31T05:02:40.704Z,16.10
2022-07-31T05:05:12.064Z,16.20
2022-07-31T05:07:40.557Z,16.30
2022-07-31T05:10:10.355Z,16.40
2022-07-31T05:12:40.145Z,16.40
2022-07-31T05:15:09.584Z,16.50
2022-07-31T05:17:38.017Z,16.50
2022-07-31T05:20:07.738Z,16.60
2022-07-31T05:22:36.365Z,16.60
2022-07-31T05:25:05.630Z,16.70
2022-07-31T05:27:36.132Z,16.80
2022-07-31T05:30:11.024Z,16.90
2022-07-31T05:32:39.455Z,16.90
2022-07-31T05:35:08.617Z,17.00
2022-07-31T05:37:38.364Z,17.00
2022-07-31T05:40:07.916Z,17.10
2022-07-31T05:42:37.040Z,17.10
2022-07-31T05:45:06.221Z,17.10
2022-07-31T05:47:40.260Z,17.20
2022-07-31T05:50:10.216Z,17.30
2022-07-31T05:52:38.639Z,17.40
2022-07-31T05:55:08.117Z,17.50
2022-07-31T05:57:36.571Z,17.60
2022-07-31T06:00:06.346Z,17.70
2022-07-31T06:02:36.535Z,17.90
2022-07-31T06:05:05.469Z,18.00
2022-07-31T06:07:33.850Z,18.20
2022-07-31T06:10:02.780Z,18.40
2022-07-31T06:12:31.215Z,18.60
2022-07-31T06:15:00.205Z,18.70
2022-07-31T06:17:28.993Z,18.90
2022-07-31T06:20:15.157Z,19.10
2022-07-31T06:22:45.508Z,19.30
2022-07-31T06:25:15.009Z,19.40
2022-07-31T06:27:43.874Z,19.50
2022-07-31T06:30:16.806Z,19.50
2022-07-31T06:32:45.348Z,19.60
2022-07-31T06:35:15.843Z,19.70
2022-07-31T06:37:45.304Z,19.70
2022-07-31T06:40:15.642Z,19.80
2022-07-31T06:42:45.746Z,19.90
2022-07-31T06:45:29.802Z,20.00
2022-07-31T06:48:04.056Z,20.00
2022-07-31T06:50:34.333Z,20.10
2022-07-31T06:53:02.729Z,20.10
2022-07-31T06:55:31.292Z,20.10
2022-07-31T06:58:00.634Z,20.20
2022-07-31T07:00:29.334Z,20.20
2022-07-31T07:02:58.115Z,20.30
2022-07-31T07:05:26.550Z,20.40
2022-07-31T07:07:57.214Z,20.40
2022-07-31T07:10:25.749Z,20.50
2022-07-31T07:12:54.410Z,20.60
2022-07-31T07:15:22.876Z,20.50
2022-07-31T07:17:51.910Z,20.50
2022-07-31T07:20:20.915Z,20.60
2022-07-31T07:22:49.392Z,20.70
2022-07-31T07:25:20.587Z,20.90
2022-07-31T07:27:49.266Z,21.10
2022-07-31T07:30:17.870Z,21.20
2022-07-31T07:32:46.504Z,21.40
2022-07-31T07:35:15.939Z,21.50
2022-07-31T07:37:44.786Z,21.70
2022-07-31T07:40:14.555Z,21.80
2022-07-31T07:42:44.945Z,22.00
2022-07-31T07:45:14.925Z,22.30
2022-07-31T07:47:53.682Z,22.40
2022-07-31T07:50:33.827Z,22.60
2022-07-31T07:53:02.593Z,22.80
2022-07-31T07:55:37.658Z,22.90
2022-07-31T07:58:11.858Z,23.00
2022-07-31T08:00:41.533Z,23.00
2022-07-31T08:03:48.968Z,23.10
2022-07-31T08:06:01.766Z,23.20
2022-07-31T08:08:30.418Z,23.40
2022-07-31T08:10:58.836Z,23.50
2022-07-31T08:13:28.846Z,23.50
2022-07-31T08:15:57.529Z,23.60
2022-07-31T08:18:27.082Z,23.70
2022-07-31T08:20:57.192Z,23.80
2022-07-31T08:23:25.696Z,24.10
2022-07-31T08:25:54.283Z,24.30
2022-07-31T08:28:26.121Z,24.60
2022-07-31T08:30:56.113Z,24.80
2022-07-31T08:33:24.656Z,24.80
2022-07-31T08:35:53.405Z,25.00
2022-07-31T08:38:22.062Z,25.10
2022-07-31T08:40:50.518Z,25.30
2022-07-31T08:44:02.868Z,25.20
2022-07-31T08:46:09.178Z,25.10
2022-07-31T08:48:42.205Z,25.00
2022-07-31T08:51:13.974Z,24.90
2022-07-31T08:53:45.194Z,24.80
2022-07-31T08:56:14.433Z,24.60
2022-07-31T08:58:42.899Z,24.40
2022-07-31T09:01:15.188Z,24.50
2022-07-31T09:03:43.734Z,24.40
2022-07-31T09:06:12.280Z,24.60
2022-07-31T09:08:41.277Z,24.70
2022-07-31T09:11:11.035Z,24.80
2022-07-31T09:13:39.794Z,24.70
2022-07-31T09:16:09.426Z,24.60
2022-07-31T09:18:39.374Z,24.60
2022-07-31T09:21:09.001Z,24.80
2022-07-31T09:23:46.946Z,24.80
2022-07-31T09:26:16.513Z,24.90
2022-07-31T09:28:46.984Z,25.00
2022-07-31T09:31:15.855Z,25.00
2022-07-31T09:33:47.236Z,24.80
2022-07-31T09:36:16.589Z,24.80
2022-07-31T09:38:46.007Z,24.80
2022-07-31T09:41:55.579Z,24.90
2022-07-31T09:44:10.615Z,24.90
2022-07-31T09:46:43.816Z,24.90
2022-07-31T09:49:14.487Z,25.00
2022-07-31T09:51:44.557Z,25.20
2022-07-31T09:54:32.144Z,25.20
2022-07-31T09:57:11.399Z,25.50
2022-07-31T09:59:40.196Z,25.50
2022-07-31T10:02:10.457Z,25.40
2022-07-31T10:04:40.647Z,25.50
2022-07-31T10:07:09.282Z,25.40
2022-07-31T10:09:59.076Z,25.30
2022-07-31T10:12:31.085Z,25.50
2022-07-31T10:15:05.774Z,25.70
2022-07-31T10:17:37.907Z,25.80
2022-07-31T10:20:10.487Z,26.20
2022-07-31T10:22:45.044Z,26.50
2022-07-31T10:25:20.384Z,26.70
2022-07-31T10:27:49.894Z,26.60
2022-07-31T10:30:18.785Z,26.70
2022-07-31T10:32:47.318Z,26.90
2022-07-31T10:35:18.697Z,27.00
2022-07-31T10:37:55.166Z,26.90
2022-07-31T10:40:30.503Z,26.90
2022-07-31T10:43:44.209Z,27.10
2022-07-31T10:46:13.877Z,27.20
2022-07-31T10:48:52.454Z,27.00
2022-07-31T10:51:22.582Z,27.10
2022-07-31T10:53:57.864Z,27.10
2022-07-31T10:56:28.683Z,26.90
2022-07-31T10:58:59.200Z,26.90
2022-07-31T11:01:27.595Z,26.80
2022-07-31T11:04:01.936Z,26.60
2022-07-31T11:06:41.585Z,26.50
2022-07-31T11:09:09.919Z,26.50
2022-07-31T11:11:39.113Z,26.40
2022-07-31T11:14:07.564Z,26.20
2022-07-31T11:16:35.846Z,25.90
2022-07-31T11:19:08.517Z,25.90
2022-07-31T11:21:40.155Z,25.90
2022-07-31T11:24:18.558Z,26.10
2022-07-31T11:26:51.723Z,26.10
2022-07-31T11:30:02.013Z,26.30
2022-07-31T11:32:25.978Z,26.50
2022-07-31T11:34:56.736Z,26.50
2022-07-31T11:37:30.638Z,26.50
2022-07-31T11:40:16.773Z,26.60
2022-07-31T11:43:04.632Z,26.40
2022-07-31T11:45:48.350Z,26.30
2022-07-31T11:48:19.323Z,26.40
2022-07-31T11:50:48.941Z,26.40
2022-07-31T11:53:18.103Z,26.40
2022-07-31T11:55:50.092Z,26.40
2022-07-31T11:58:19.748Z,26.30
2022-07-31T12:00:49.711Z,26.30
2022-07-31T12:03:18.984Z,26.20
2022-07-31T12:05:48.839Z,26.20
2022-07-31T12:08:18.024Z,26.40
2022-07-31T12:10:48.035Z,26.20
2022-07-31T12:13:18.004Z,26.10
2022-07-31T12:15:56.883Z,25.80
2022-07-31T12:18:26.321Z,25.60
2022-07-31T12:20:56.613Z,25.60
2022-07-31T12:23:38.684Z,25.60
2022-07-31T12:26:13.596Z,25.50
2022-07-31T12:28:42.344Z,25.60
2022-07-31T12:31:10.766Z,25.80
2022-07-31T12:33:43.704Z,25.90
2022-07-31T12:36:16.430Z,25.80
2022-07-31T12:38:48.455Z,25.80
2022-07-31T12:41:19.052Z,25.90
2022-07-31T12:43:51.482Z,26.10
2022-07-31T12:46:22.422Z,26.20
2022-07-31T12:48:51.201Z,26.20
2022-07-31T12:51:44.007Z,26.30
2022-07-31T12:54:09.567Z,26.20
2022-07-31T12:56:41.135Z,26.20
2022-07-31T12:59:10.613Z,26.20
2022-07-31T13:01:39.559Z,25.90
2022-07-31T13:04:18.996Z,25.90
2022-07-31T13:06:51.367Z,25.80
2022-07-31T13:09:20.461Z,25.80
2022-07-31T13:11:54.616Z,25.80
2022-07-31T13:14:25.941Z,25.60
2022-07-31T13:16:57.465Z,25.40
2022-07-31T13:19:25.923Z,24.90
2022-07-31T13:21:56.894Z,24.90
2022-07-31T13:24:25.928Z,24.90
2022-07-31T13:26:58.807Z,24.80
2022-07-31T13:29:27.125Z,24.80
2022-07-31T13:31:55.472Z,24.90
2022-07-31T13:34:23.967Z,24.90
2022-07-31T13:36:52.503Z,24.70
2022-07-31T13:39:20.991Z,24.60
2022-07-31T13:41:49.469Z,24.60
2022-07-31T13:44:19.415Z,24.60
2022-07-31T13:46:47.932Z,24.60
2022-07-31T13:49:16.397Z,24.50
2022-07-31T13:51:45.533Z,24.60
2022-07-31T13:54:14.243Z,24.50
2022-07-31T13:56:43.775Z,24.40
2022-07-31T13:59:17.600Z,24.40
2022-07-31T14:02:03.988Z,24.30
2022-07-31T14:04:38.685Z,24.30
2022-07-31T14:07:08.783Z,24.30
2022-07-31T14:09:37.828Z,24.30
2022-07-31T14:12:07.238Z,24.20
2022-07-31T14:14:36.113Z,24.30
2022-07-31T14:17:05.994Z,24.30
2022-07-31T14:19:42.068Z,24.40
2022-07-31T14:22:13.408Z,24.60
2022-07-31T14:24:50.042Z,24.90
2022-07-31T14:27:19.899Z,25.00
2022-07-31T14:29:48.381Z,25.10
2022-07-31T14:32:19.484Z,24.90
2022-07-31T14:34:48.003Z,24.80
2022-07-31T14:37:16.494Z,24.70
2022-07-31T14:39:44.985Z,24.70
2022-07-31T14:42:13.952Z,24.70
2022-07-31T14:44:42.933Z,24.10
2022-07-31T14:47:12.455Z,24.00
2022-07-31T14:50:09.796Z,23.70
2022-07-31T14:52:31.138Z,23.60
2022-07-31T14:55:00.674Z,23.30
2022-07-31T14:57:29.996Z,22.90
2022-07-31T14:59:58.602Z,22.90
2022-07-31T15:02:27.308Z,22.90
2022-07-31T15:04:57.172Z,22.90
2022-07-31T15:07:35.218Z,23.00
2022-07-31T15:10:05.639Z,23.10
2022-07-31T15:12:34.084Z,23.20
2022-07-31T15:15:02.542Z,23.10
2022-07-31T15:17:31.564Z,23.30
2022-07-31T15:20:01.378Z,23.50
2022-07-31T15:22:30.343Z,23.80
2022-07-31T15:24:59.036Z,24.00
2022-07-31T15:27:27.722Z,24.10
2022-07-31T15:30:00.539Z,24.30
2022-07-31T15:32:37.030Z,24.30
2022-07-31T15:35:10.272Z,24.50
2022-07-31T15:37:40.082Z,24.50
2022-07-31T15:40:11.424Z,24.60
2022-07-31T15:42:41.920Z,24.80
2022-07-31T15:45:12.838Z,24.80
2022-07-31T15:47:42.173Z,25.10
2022-07-31T15:50:14.877Z,25.40
2022-07-31T15:52:44.363Z,25.80
2022-07-31T15:55:13.246Z,26.30
2022-07-31T15:57:43.076Z,26.60
2022-07-31T16:00:14.155Z,26.40
2022-07-31T16:02:44.134Z,26.30
2022-07-31T16:05:21.928Z,26.20
2022-07-31T16:08:28.943Z,25.90
2022-07-31T16:10:55.091Z,25.90
2022-07-31T16:13:25.001Z,25.80
2022-07-31T16:15:53.442Z,25.50
2022-07-31T16:18:22.156Z,25.30
2022-07-31T16:20:53.063Z,25.30
2022-07-31T16:23:21.564Z,25.20
2022-07-31T16:25:50.007Z,25.30
2022-07-31T16:28:18.645Z,25.30
2022-07-31T16:30:47.184Z,25.30
2022-07-31T16:33:15.686Z,25.20
2022-07-31T16:35:44.147Z,25.20
2022-07-31T16:38:14.383Z,25.10
2022-07-31T16:40:42.993Z,24.90
2022-07-31T16:43:48.500Z,24.80
2022-07-31T16:46:00.164Z,24.90
2022-07-31T16:48:28.692Z,25.00
2022-07-31T16:50:57.112Z,25.10
2022-07-31T16:54:14.080Z,25.30
2022-07-31T16:56:17.675Z,25.40
2022-07-31T16:58:47.104Z,25.30
2022-07-31T17:01:57.394Z,25.20
2022-07-31T17:04:06.354Z,25.10
2022-07-31T17:06:37.981Z,25.00
2022-07-31T17:09:16.930Z,25.00
2022-07-31T17:11:49.146Z,24.80
2022-07-31T17:14:18.452Z,24.80
2022-07-31T17:16:49.081Z,24.70
2022-07-31T17:19:42.464Z,24.70
2022-07-31T17:22:08.060Z,24.60
2022-07-31T17:24:38.978Z,24.60
2022-07-31T17:27:09.179Z,24.60
2022-07-31T17:29:38.229Z,24.50
2022-07-31T17:32:07.371Z,24.50
2022-07-31T17:34:37.732Z,24.50
2022-07-31T17:37:07.317Z,24.40
2022-07-31T17:39:36.375Z,24.40
2022-07-31T17:42:06.791Z,24.40
2022-07-31T17:44:39.967Z,24.30
2022-07-31T17:47:09.502Z,24.30
2022-07-31T17:49:38.660Z,24.10
2022-07-31T17:52:08.105Z,24.00
2022-07-31T17:54:36.833Z,23.80
2022-07-31T17:57:07.529Z,23.70
2022-07-31T17:59:36.033Z,23.60
2022-07-31T18:02:05.195Z,23.50
2022-07-31T18:04:37.014Z,23.20
2022-07-31T18:07:07.592Z,23.00
2022-07-31T18:09:36.691Z,22.80
2022-07-31T18:12:09.861Z,22.40
2022-07-31T18:14:41.072Z,22.30
2022-07-31T18:17:09.535Z,22.00
2022-07-31T18:19:38.043Z,21.70
2022-07-31T18:22:06.777Z,21.50
2022-07-31T18:24:35.945Z,21.40
2022-07-31T18:27:04.483Z,21.20
2022-07-31T18:29:34.614Z,21.10
2022-07-31T18:32:03.271Z,21.00
2022-07-31T18:34:31.914Z,21.00
2022-07-31T18:37:02.414Z,20.90
2022-07-31T18:39:31.238Z,20.90
2022-07-31T18:41:59.866Z,20.90
2022-07-31T18:44:28.650Z,20.90
2022-07-31T18:46:58.571Z,20.80
2022-07-31T18:51:01.573Z,20.80
2022-07-31T18:52:15.934Z,20.80
2022-07-31T18:54:44.472Z,20.70
2022-07-31T18:57:13.080Z,20.60
2022-07-31T18:59:41.451Z,20.60
2022-07-31T19:02:12.099Z,20.60
2022-07-31T19:04:41.033Z,20.50
2022-07-31T19:07:10.992Z,20.50
2022-07-31T19:09:39.578Z,20.50
2022-07-31T19:12:09.005Z,20.50
2022-07-31T19:14:37.669Z,20.40
2022-07-31T19:17:08.471Z,20.40
2022-07-31T19:19:55.139Z,20.40
2022-07-31T19:22:26.980Z,20.30
2022-07-31T19:24:55.413Z,20.30
2022-07-31T19:27:46.806Z,20.30
2022-07-31T19:30:13.931Z,20.20
2022-07-31T19:32:42.487Z,20.20
2022-07-31T19:35:12.395Z,20.20
2022-07-31T19:37:41.012Z,20.20
2022-07-31T19:40:10.763Z,20.20
2022-07-31T19:42:39.564Z,20.20
2022-07-31T19:45:09.361Z,20.20
2022-07-31T19:47:38.111Z,20.20
2022-07-31T19:50:08.213Z,20.20
2022-07-31T19:52:38.094Z,20.20
2022-07-31T19:55:08.511Z,20.10
2022-07-31T19:57:36.926Z,20.10
2022-07-31T20:00:06.963Z,20.10
2022-07-31T20:02:35.425Z,20.10
2022-07-31T20:05:03.825Z,20.10
2022-07-31T20:07:33.132Z,20.10
2022-07-31T20:10:03.465Z,20.00
2022-07-31T20:12:31.832Z,20.00
2022-07-31T20:15:00.649Z,19.90
2022-07-31T20:17:29.378Z,19.90
2022-07-31T20:20:12.534Z,19.80
2022-07-31T20:22:44.311Z,19.80
2022-07-31T20:25:20.273Z,19.70
2022-07-31T20:27:50.015Z,19.70
2022-07-31T20:30:22.132Z,19.70
2022-07-31T20:32:51.581Z,19.60
2022-07-31T20:35:32.994Z,19.60
2022-07-31T20:38:15.578Z,19.60
2022-07-31T20:40:48.223Z,19.50
2022-07-31T20:43:22.887Z,19.50
2022-07-31T20:45:51.616Z,19.50
2022-07-31T20:48:22.001Z,19.40
2022-07-31T20:50:50.625Z,19.40
2022-07-31T20:53:19.551Z,19.40
2022-07-31T20:55:50.576Z,19.40
2022-07-31T20:58:19.555Z,19.50
2022-07-31T21:00:48.630Z,19.50
2022-07-31T21:03:20.414Z,19.50
2022-07-31T21:05:49.802Z,19.50
2022-07-31T21:08:19.171Z,19.50
2022-07-31T21:10:49.553Z,19.50
2022-07-31T21:13:17.992Z,19.50
2022-07-31T21:15:46.518Z,19.50
2022-07-31T21:18:15.857Z,19.50
2022-07-31T21:20:50.928Z,19.50
2022-07-31T21:23:22.194Z,19.50
2022-07-31T21:25:52.645Z,19.50
2022-07-31T21:28:21.870Z,19.40
2022-07-31T21:30:50.496Z,19.40
2022-07-31T21:33:19.045Z,19.40
2022-07-31T21:35:48.102Z,19.40
2022-07-31T21:38:17.284Z,19.40
2022-07-31T21:40:46.805Z,19.40
2022-07-31T21:43:22.083Z,19.40
2022-07-31T21:45:57.203Z,19.40
2022-07-31T21:48:31.358Z,19.40
2022-07-31T21:51:00.217Z,19.40
2022-07-31T21:53:28.643Z,19.40
2022-07-31T21:55:59.037Z,19.40
2022-07-31T21:58:28.856Z,19.30
2022-07-31T22:00:57.465Z,19.30
2022-07-31T22:03:26.516Z,19.30
2022-07-31T22:06:12.513Z,19.30
2022-07-31T22:08:40.952Z,19.20
2022-07-31T22:11:09.403Z,19.20
2022-07-31T22:13:39.384Z,19.20
2022-07-31T22:16:08.294Z,19.20
2022-07-31T22:18:37.023Z,19.20
2022-07-31T22:21:07.984Z,19.20
2022-07-31T22:23:36.881Z,19.20
2022-07-31T22:26:06.091Z,19.20
2022-07-31T22:28:34.818Z,19.20
2022-07-31T22:31:04.878Z,19.30
2022-07-31T22:33:33.380Z,19.30
2022-07-31T22:36:07.075Z,19.30
2022-07-31T22:38:38.019Z,19.30
2022-07-31T22:41:07.444Z,19.30
2022-07-31T22:44:13.439Z,19.30
2022-07-31T22:46:27.135Z,19.30
2022-07-31T22:48:57.051Z,19.30
2022-07-31T22:51:25.585Z,19.30
2022-07-31T22:53:53.946Z,19.30
2022-07-31T22:56:22.254Z,19.30
2022-07-31T22:58:50.736Z,19.30
2022-07-31T23:01:19.164Z,19.30
2022-07-31T23:03:49.004Z,19.20
2022-07-31T23:06:31.688Z,19.20
2022-07-31T23:09:01.720Z,19.30
2022-07-31T23:11:30.200Z,19.30
2022-07-31T23:13:58.736Z,19.30
2022-07-31T23:16:27.558Z,19.30
2022-07-31T23:18:57.818Z,19.30
2022-07-31T23:21:26.218Z,19.30
2022-07-31T23:23:54.806Z,19.30
2022-07-31T23:26:25.123Z,19.30
2022-07-31T23:28:54.602Z,19.30
2022-07-31T23:31:23.367Z,19.30
2022-07-31T23:33:52.080Z,19.30
2022-07-31T23:36:23.436Z,19.20
2022-07-31T23:38:52.147Z,19.20
2022-07-31T23:41:41.016Z,19.20
2022-07-31T23:44:10.475Z,19.10
2022-07-31T23:46:40.413Z,19.10
2022-07-31T23:49:09.890Z,19.10
2022-07-31T23:51:39.716Z,19.10
2022-07-31T23:54:08.408Z,19.10
2022-07-31T23:56:36.753Z,19.10
2022-07-31T23:59:05.203Z,19.10
